Time;durP1;ratioP1;P1;durP2;ratioP2;P2;SDS_P1;SDS_P2;PMS_P1;PMS_P2;Temp;Humidity;BMP_temperature;BMP_pressure;BME280_temperature;BME280_humidity;BME280_pressure;Samples;Min_cycle;Max_cycle;Signal;HPM_P1;HPM_P2
2021/12/07 00:01:21;;;;;;;28.42;14.35;;;0.30;99.90;;;;;;4990979;23;20042;-79
2021/12/07 00:03:21;;;;;;;27.27;14.10;;;0.30;99.90;;;;;;4992215;23;20403;-78
2021/12/07 00:05:22;;;;;;;27.02;14.50;;;0.30;99.90;;;;;;4991097;23;20018;-77
2021/12/07 00:07:23;;;;;;;30.23;13.43;;;0.30;99.90;;;;;;4990543;23;20022;-78
2021/12/07 00:09:24;;;;;;;30.77;14.02;;;0.30;99.90;;;;;;5013290;23;20017;-77
2021/12/07 00:11:27;;;;;;;32.70;13.60;;;0.30;99.90;;;;;;4990290;23;20050;-78
2021/12/07 00:13:32;;;;;;;;;;;0.20;99.90;;;;;;4991730;23;20093;-77
2021/12/07 00:15:34;;;;;;;24.05;12.50;;;0.20;99.90;;;;;;4991109;23;19984;-77
2021/12/07 00:17:35;;;;;;;27.20;12.95;;;0.20;99.90;;;;;;4989983;23;20067;-76
2021/12/07 00:19:36;;;;;;;30.17;13.75;;;0.20;99.90;;;;;;5013103;23;20046;-76
2021/12/07 00:21:38;;;;;;;25.00;13.20;;;0.30;99.90;;;;;;4991270;23;20008;-76
2021/12/07 00:23:38;;;;;;;25.85;13.05;;;0.40;99.90;;;;;;4989369;23;20019;-77
2021/12/07 00:25:39;;;;;;;28.75;14.35;;;0.50;99.90;;;;;;4991485;23;20590;-77
2021/12/07 00:27:40;;;;;;;26.35;12.93;;;0.50;99.90;;;;;;4991487;23;20027;-76
2021/12/07 00:29:41;;;;;;;29.80;15.52;;;0.50;99.90;;;;;;4991581;23;20026;-77
2021/12/07 00:31:53;;;;;;;33.10;15.55;;;0.50;99.90;;;;;;4989535;23;20027;-77
2021/12/07 00:34:11;;;;;;;26.88;13.38;;;0.50;99.90;;;;;;4990079;23;20417;-76
2021/12/07 00:36:12;;;;;;;34.45;15.75;;;0.50;99.90;;;;;;4990652;23;20058;-77
2021/12/07 00:38:16;;;;;;;37.15;16.65;;;0.50;99.90;;;;;;4991758;23;20019;-77
2021/12/07 00:40:19;;;;;;;37.70;17.88;;;0.50;99.90;;;;;;4991050;23;20015;-77
2021/12/07 00:42:21;;;;;;;30.05;15.95;;;0.60;99.90;;;;;;4991957;23;20155;-77
2021/12/07 00:44:27;;;;;;;31.20;15.18;;;0.60;99.90;;;;;;4989311;23;20102;-77
2021/12/07 00:46:28;;;;;;;28.55;15.25;;;0.60;99.90;;;;;;4992173;23;20025;-78
2021/12/07 00:48:30;;;;;;;35.45;17.45;;;0.60;99.90;;;;;;4990689;23;20015;-77
2021/12/07 00:50:32;;;;;;;28.60;14.38;;;0.60;99.90;;;;;;4990968;23;20011;-77
2021/12/07 00:52:33;;;;;;;34.00;17.08;;;0.60;99.90;;;;;;4989121;23;20011;-78
2021/12/07 00:54:35;;;;;;;36.95;15.95;;;0.70;99.90;;;;;;4991261;23;20520;-78
2021/12/07 00:56:35;;;;;;;38.65;16.92;;;0.60;99.90;;;;;;4990345;23;20019;-78
2021/12/07 00:58:36;;;;;;;43.95;17.90;;;0.70;99.90;;;;;;4991056;23;20414;-77
2021/12/07 01:00:37;;;;;;;36.13;17.08;;;0.70;99.90;;;;;;4990970;23;20023;-77
2021/12/07 01:02:38;;;;;;;45.35;17.13;;;0.80;99.90;;;;;;4988637;23;20030;-78
2021/12/07 01:04:40;;;;;;;34.10;17.67;;;0.70;99.90;;;;;;4989758;23;20015;-78
2021/12/07 01:06:48;;;;;;;38.30;17.92;;;0.70;99.90;;;;;;4988725;23;20026;-78
2021/12/07 01:25:06;;;;;;;45.80;20.00;;;0.80;99.90;;;;;;4989503;23;20057;-77
2021/12/07 01:27:08;;;;;;;46.05;19.95;;;0.80;99.90;;;;;;4987087;23;20036;-77
2021/12/07 01:29:08;;;;;;;43.60;19.08;;;0.80;99.90;;;;;;4990560;23;20046;-76
2021/12/07 01:35:58;;;;;;;40.88;19.08;;;1.00;99.90;;;;;;4991640;23;20012;-77
2021/12/07 01:38:27;;;;;;;53.10;21.40;;;1.00;99.90;;;;;;4991137;23;20332;-76
2021/12/07 01:45:13;;;;;;;46.05;22.88;;;0.80;99.90;;;;;;4991395;23;20475;-75
2021/12/07 01:50:06;;;;;;;48.33;22.23;;;1.00;99.90;;;;;;4993279;23;20008;-75
2021/12/07 02:00:44;;;;;;;42.90;20.10;;;1.10;99.90;;;;;;4994099;23;20019;-76
2021/12/07 02:02:45;;;;;;;;;;;1.20;99.90;;;;;;4991052;23;20506;-75
2021/12/07 02:04:46;;;;;;;50.72;19.92;;;1.20;99.90;;;;;;4992810;23;19950;-75
2021/12/07 02:06:46;;;;;;;49.25;22.00;;;1.20;99.90;;;;;;4990804;23;20023;-75
2021/12/07 02:08:47;;;;;;;43.47;20.77;;;1.20;99.90;;;;;;5014145;23;20121;-75
2021/12/07 02:10:48;;;;;;;47.58;24.88;;;1.20;99.90;;;;;;4990900;23;20123;-74
2021/12/07 02:12:50;;;;;;;49.85;23.35;;;1.20;99.90;;;;;;4990564;23;20075;-75
2021/12/07 02:14:51;;;;;;;55.60;24.58;;;1.20;99.90;;;;;;5014051;23;20019;-74
2021/12/07 02:16:56;;;;;;;55.28;23.45;;;1.30;99.90;;;;;;5013182;23;20072;-75
2021/12/07 02:18:56;;;;;;;50.35;23.77;;;1.30;99.90;;;;;;4992454;23;20448;-75
2021/12/07 02:21:19;;;;;;;54.65;21.20;;;1.30;99.90;;;;;;4990751;23;20034;-75
2021/12/07 02:23:19;;;;;;;55.38;22.70;;;1.30;99.90;;;;;;4990495;23;20022;-74
2021/12/07 02:25:20;;;;;;;50.78;21.38;;;1.40;99.90;;;;;;4991845;23;20015;-74
2021/12/07 02:27:21;;;;;;;45.80;19.95;;;1.40;99.90;;;;;;4990978;23;20071;-75
2021/12/07 02:29:23;;;;;;;52.53;21.92;;;1.40;99.90;;;;;;4991592;23;20401;-75
2021/12/07 02:31:24;;;;;;;47.78;21.17;;;1.40;99.90;;;;;;4992506;23;20022;-75
2021/12/07 02:33:28;;;;;;;45.25;20.55;;;1.50;99.90;;;;;;4992320;23;20030;-75
2021/12/07 02:35:28;;;;;;;;;;;1.50;99.90;;;;;;4991299;23;20038;-75
2021/12/07 02:37:33;;;;;;;43.53;18.83;;;1.50;99.90;;;;;;4991832;23;19921;-75
2021/12/07 02:39:37;;;;;;;38.90;18.45;;;1.50;99.90;;;;;;4991089;23;20523;-75
2021/12/07 02:41:38;;;;;;;44.60;19.25;;;1.60;99.90;;;;;;4990287;23;20011;-75
2021/12/07 02:43:39;;;;;;;46.13;18.77;;;1.60;99.90;;;;;;4991382;23;20019;-75
2021/12/07 02:45:40;;;;;;;47.33;19.23;;;1.70;99.90;;;;;;4992077;23;20046;-75
2021/12/07 02:47:41;;;;;;;40.63;16.40;;;1.80;99.90;;;;;;4992652;23;20073;-76
2021/12/07 02:49:42;;;;;;;38.58;17.40;;;1.80;99.90;;;;;;4988889;23;20023;-75
2021/12/07 02:51:42;;;;;;;41.97;16.30;;;1.90;99.90;;;;;;4989071;23;20152;-75
2021/12/07 02:53:43;;;;;;;34.75;15.38;;;2.00;99.90;;;;;;4990653;23;20015;-75
2021/12/07 02:55:44;;;;;;;34.50;15.05;;;2.10;99.90;;;;;;4990981;23;20019;-75
2021/12/07 02:57:46;;;;;;;33.10;13.48;;;2.10;99.90;;;;;;4991659;23;20027;-74
2021/12/07 02:59:56;;;;;;;38.97;14.27;;;2.20;99.90;;;;;;4987688;23;20417;-75
2021/12/07 03:02:05;;;;;;;38.10;13.52;;;2.30;99.90;;;;;;4986884;23;20015;-75
2021/12/07 03:04:10;;;;;;;40.55;14.80;;;2.30;99.90;;;;;;4988492;23;20016;-74
2021/12/07 03:06:30;;;;;;;31.77;10.93;;;2.40;99.90;;;;;;4987414;23;20016;-74
2021/12/07 03:27:02;;;;;;;24.52;7.30;;;2.60;99.90;;;;;;4991616;23;20479;-76
2021/12/07 03:29:03;;;;;;;22.55;7.35;;;2.80;99.90;;;;;;5013755;23;20391;-75
2021/12/07 03:31:04;;;;;;;19.48;6.47;;;2.90;99.90;;;;;;4989856;23;20022;-75
2021/12/07 03:33:06;;;;;;;14.80;5.80;;;2.90;99.90;;;;;;4992174;23;20096;-75
2021/12/07 03:35:07;;;;;;;17.17;5.60;;;2.90;99.90;;;;;;4990740;23;20011;-75
2021/12/07 03:37:07;;;;;;;20.30;5.80;;;3.00;99.90;;;;;;5013864;23;20476;-75
2021/12/07 03:39:08;;;;;;;16.30;6.80;;;3.10;99.90;;;;;;4991242;23;20023;-76
2021/12/07 03:41:09;;;;;;;16.55;6.47;;;3.10;99.90;;;;;;5014121;23;20656;-76
2021/12/07 03:43:12;;;;;;;19.35;5.75;;;3.20;99.90;;;;;;4991000;23;20023;-76
2021/12/07 03:45:13;;;;;;;18.17;6.20;;;3.20;99.90;;;;;;4992072;23;20356;-75
2021/12/07 03:47:14;;;;;;;21.95;6.10;;;3.30;99.90;;;;;;4991174;23;20015;-75
2021/12/07 03:49:15;;;;;;;22.83;7.05;;;3.30;99.90;;;;;;5014142;23;20110;-75
2021/12/07 03:51:16;;;;;;;20.70;4.75;;;3.30;99.90;;;;;;4989205;23;20019;-76
2021/12/07 03:53:17;;;;;;;17.33;4.75;;;3.30;99.90;;;;;;4991278;23;20582;-75
2021/12/07 03:55:18;;;;;;;19.00;4.40;;;3.30;99.90;;;;;;4991282;23;20058;-74
2021/12/07 03:57:19;;;;;;;16.83;5.32;;;3.30;99.90;;;;;;4991653;23;20018;-75
2021/12/07 03:59:19;;;;;;;12.13;4.78;;;3.30;99.90;;;;;;4991113;23;20348;-75
2021/12/07 04:01:23;;;;;;;15.20;4.32;;;3.20;99.90;;;;;;4991947;23;20022;-75
2021/12/07 04:03:24;;;;;;;19.58;4.72;;;3.20;99.90;;;;;;4989377;23;20031;-77
2021/12/07 04:05:26;;;;;;;20.38;6.35;;;3.10;99.90;;;;;;4991519;23;20102;-76
2021/12/07 04:07:26;;;;;;;14.95;4.55;;;3.10;99.90;;;;;;5013367;23;20038;-75
2021/12/07 04:09:28;;;;;;;12.80;4.25;;;3.10;99.90;;;;;;4991757;23;20015;-76
2021/12/07 04:11:29;;;;;;;11.05;4.90;;;3.10;99.90;;;;;;4991173;23;20020;-76
2021/12/07 04:13:29;;;;;;;25.58;5.65;;;3.20;99.90;;;;;;4991244;23;20407;-76
2021/12/07 04:15:30;;;;;;;18.60;4.65;;;3.10;99.90;;;;;;4991510;23;20016;-76
2021/12/07 04:17:31;;;;;;;20.05;4.80;;;3.00;99.90;;;;;;5012897;23;20011;-75
2021/12/07 04:19:32;;;;;;;13.48;4.85;;;3.00;99.90;;;;;;4990849;23;20022;-76
2021/12/07 04:21:32;;;;;;;9.43;3.60;;;3.10;99.90;;;;;;4990910;23;20015;-75
2021/12/07 04:23:34;;;;;;;13.60;4.57;;;3.10;99.90;;;;;;4991739;23;20019;-76
2021/12/07 04:25:36;;;;;;;13.15;4.55;;;3.20;99.90;;;;;;4991631;23;20542;-75
2021/12/07 04:27:39;;;;;;;14.63;4.63;;;3.20;99.90;;;;;;5013300;23;20436;-75
2021/12/07 04:29:39;;;;;;;14.10;4.38;;;3.20;99.90;;;;;;4990739;23;20468;-76
2021/12/07 04:31:40;;;;;;;14.45;4.68;;;3.10;99.90;;;;;;4991113;23;20075;-76
2021/12/07 04:33:41;;;;;;;11.68;5.05;;;3.00;99.90;;;;;;5012540;23;20549;-75
2021/12/07 04:35:46;;;;;;;17.90;6.03;;;2.90;99.90;;;;;;4991835;23;20019;-76
2021/12/07 04:37:47;;;;;;;15.70;5.68;;;2.80;99.90;;;;;;4990327;23;20094;-75
2021/12/07 04:39:48;;;;;;;21.10;5.20;;;2.70;99.90;;;;;;4991720;23;20015;-76
2021/12/07 04:41:50;;;;;;;18.45;6.38;;;2.50;99.90;;;;;;4990865;23;20067;-78
2021/12/07 04:43:51;;;;;;;15.82;5.30;;;2.40;99.90;;;;;;4991350;23;20503;-75
2021/12/07 04:46:12;;;;;;;22.88;7.18;;;2.30;99.90;;;;;;5012767;23;20441;-77
2021/12/07 04:59:22;;;;;;;18.58;5.85;;;2.20;99.90;;;;;;4991734;23;20383;-75
2021/12/07 05:01:24;;;;;;;22.80;6.07;;;2.10;99.90;;;;;;4990891;23;20011;-76
2021/12/07 05:03:26;;;;;;;26.15;6.18;;;1.90;99.90;;;;;;5013216;23;20038;-76
2021/12/07 05:05:34;;;;;;;26.98;6.05;;;1.90;99.90;;;;;;4991020;23;20019;-76
2021/12/07 05:07:40;;;;;;;23.85;7.25;;;1.90;99.90;;;;;;4991312;23;20022;-76
2021/12/07 05:12:04;;;;;;;22.27;6.80;;;1.90;99.90;;;;;;4991316;23;20023;-75
2021/12/07 05:14:26;;;;;;;23.83;6.95;;;1.90;99.90;;;;;;5010287;23;20490;-75
2021/12/07 05:19:00;;;;;;;17.42;6.45;;;2.00;99.90;;;;;;4991169;23;20057;-75
2021/12/07 05:34:44;;;;;;;30.52;6.57;;;2.50;99.90;;;;;;4990249;23;20689;-76
2021/12/07 05:37:45;;;;;;;24.92;6.25;;;2.50;99.90;;;;;;4993660;23;20020;-76
2021/12/07 05:39:45;;;;;;;21.38;5.43;;;2.50;99.90;;;;;;4991570;23;20023;-76
2021/12/07 05:41:46;;;;;;;20.08;7.50;;;2.40;99.90;;;;;;4992601;23;20503;-77
2021/12/07 05:43:47;;;;;;;22.13;6.18;;;2.40;99.90;;;;;;4991235;23;20103;-75
2021/12/07 05:45:47;;;;;;;31.75;6.13;;;2.30;99.90;;;;;;4993079;23;20339;-76
2021/12/07 05:47:48;;;;;;;24.30;6.53;;;2.30;99.90;;;;;;4992314;23;20130;-76
2021/12/07 05:49:50;;;;;;;21.20;7.47;;;2.20;99.90;;;;;;4992674;23;20038;-75
2021/12/07 05:51:50;;;;;;;31.83;8.93;;;2.20;99.90;;;;;;4991812;23;20022;-76
2021/12/07 05:53:51;;;;;;;30.13;7.57;;;2.20;99.90;;;;;;4992843;23;20012;-75
2021/12/07 05:55:51;;;;;;;28.85;8.57;;;2.10;99.90;;;;;;4992273;23;20046;-75
2021/12/07 05:57:53;;;;;;;29.38;7.78;;;2.10;99.90;;;;;;4992368;23;20019;-77
2021/12/07 05:59:54;;;;;;;35.03;8.55;;;2.10;99.90;;;;;;5013121;23;20015;-75
2021/12/07 06:01:54;;;;;;;30.30;8.13;;;2.10;99.90;;;;;;4992037;23;20347;-76
2021/12/07 06:03:55;;;;;;;19.35;7.93;;;2.00;99.90;;;;;;4992949;23;20015;-77
2021/12/07 06:05:56;;;;;;;23.75;8.32;;;2.00;99.90;;;;;;4991940;23;20034;-76
2021/12/07 06:07:57;;;;;;;23.75;7.82;;;2.00;99.90;;;;;;4992726;23;20393;-75
2021/12/07 06:09:58;;;;;;;29.05;8.75;;;2.00;99.90;;;;;;4992603;23;20475;-77
2021/12/07 06:11:59;;;;;;;29.25;7.55;;;1.90;99.90;;;;;;4991267;23;20027;-75
2021/12/07 06:14:00;;;;;;;22.58;7.15;;;2.00;99.90;;;;;;4991909;23;20022;-75
2021/12/07 06:16:06;;;;;;;25.55;7.40;;;2.10;99.90;;;;;;4992244;23;20015;-75
2021/12/07 06:18:06;;;;;;;22.85;8.15;;;2.10;99.90;;;;;;4991613;23;20437;-75
2021/12/07 06:20:07;;;;;;;25.13;7.72;;;2.00;99.90;;;;;;4991726;23;20012;-75
2021/12/07 06:22:09;;;;;;;23.83;7.68;;;2.10;99.90;;;;;;4991165;23;20019;-75
2021/12/07 06:24:09;;;;;;;25.83;7.50;;;2.30;99.90;;;;;;5014255;23;20364;-77
2021/12/07 06:26:10;;;;;;;28.15;7.93;;;2.30;99.90;;;;;;4991100;23;20011;-75
2021/12/07 06:28:11;;;;;;;19.48;8.07;;;2.40;99.90;;;;;;4991719;23;20019;-75
2021/12/07 06:30:12;;;;;;;32.13;8.18;;;2.50;99.90;;;;;;4991043;23;20016;-77
2021/12/07 06:32:13;;;;;;;22.02;7.93;;;2.50;99.90;;;;;;4992538;23;20018;-77
2021/12/07 06:34:14;;;;;;;28.92;8.88;;;2.50;99.90;;;;;;4990775;23;20015;-76
2021/12/07 06:36:15;;;;;;;22.00;7.97;;;2.50;99.90;;;;;;4991701;23;20015;-75
2021/12/07 06:38:18;;;;;;;22.65;8.15;;;2.40;99.90;;;;;;5013944;23;20019;-76
2021/12/07 06:40:18;;;;;;;34.95;8.38;;;2.30;99.90;;;;;;4992587;23;20050;-75
2021/12/07 06:42:19;;;;;;;21.75;8.35;;;2.30;99.90;;;;;;4991334;23;20015;-76
2021/12/07 06:44:19;;;;;;;21.27;7.07;;;2.20;99.90;;;;;;4991836;23;20030;-76
2021/12/07 06:46:20;;;;;;;24.67;6.55;;;2.00;99.90;;;;;;4992100;23;20015;-76
2021/12/07 06:48:20;;;;;;;36.65;7.82;;;1.90;99.90;;;;;;5014114;23;20058;-76
2021/12/07 06:50:23;;;;;;;28.50;7.95;;;1.70;99.90;;;;;;4989514;23;20066;-76
2021/12/07 06:52:23;;;;;;;24.88;8.20;;;1.70;99.90;;;;;;4992012;23;20012;-76
2021/12/07 06:54:25;;;;;;;22.33;8.75;;;1.60;99.90;;;;;;4990497;23;20079;-76
2021/12/07 06:56:28;;;;;;;23.73;7.50;;;1.40;99.90;;;;;;4991946;23;20015;-75
2021/12/07 06:58:28;;;;;;;38.22;8.57;;;1.30;99.90;;;;;;4992217;23;20857;-76
2021/12/07 07:00:30;;;;;;;21.52;7.38;;;1.30;99.90;;;;;;4991875;23;20023;-76
2021/12/07 07:02:31;;;;;;;22.88;8.32;;;1.20;99.90;;;;;;5013424;23;20026;-76
2021/12/07 07:04:32;;;;;;;25.80;7.88;;;1.10;99.90;;;;;;4992295;23;20016;-76
2021/12/07 07:06:32;;;;;;;21.30;6.97;;;1.00;99.90;;;;;;4991967;23;20548;-76
2021/12/07 07:08:33;;;;;;;21.27;8.80;;;0.90;99.90;;;;;;4990637;23;20090;-76
2021/12/07 07:10:34;;;;;;;19.98;8.63;;;0.70;99.90;;;;;;4987172;23;20094;-76
2021/12/07 07:12:34;;;;;;;22.25;7.72;;;0.60;99.90;;;;;;4991194;23;20019;-75
2021/12/07 07:14:35;;;;;;;27.58;8.80;;;0.50;99.90;;;;;;4989831;23;20024;-76
2021/12/07 07:16:35;;;;;;;26.35;8.75;;;0.40;99.90;;;;;;5013249;23;20025;-76
2021/12/07 07:18:36;;;;;;;37.50;8.55;;;0.30;99.90;;;;;;4988539;23;20074;-76
2021/12/07 07:20:37;;;;;;;33.90;9.07;;;0.30;99.90;;;;;;4989312;23;20030;-76
2021/12/07 07:22:38;;;;;;;28.20;8.82;;;0.20;99.90;;;;;;4989354;23;20015;-75
2021/12/07 07:24:42;;;;;;;24.60;8.98;;;0.10;99.90;;;;;;4990402;23;20015;-75
2021/12/07 07:26:43;;;;;;;34.13;8.80;;;0.00;99.90;;;;;;5012160;23;20019;-75
2021/12/07 07:28:43;;;;;;;25.65;8.48;;;0.10;99.90;;;;;;4989468;23;20015;-76
2021/12/07 07:30:44;;;;;;;31.95;10.30;;;0.00;99.90;;;;;;4990000;23;20098;-75
2021/12/07 07:32:46;;;;;;;25.13;9.27;;;-0.10;99.90;;;;;;4990717;23;20027;-75
2021/12/07 07:34:46;;;;;;;30.55;10.00;;;-0.10;99.90;;;;;;4990935;23;20954;-76
2021/12/07 07:36:47;;;;;;;26.52;9.65;;;0.10;99.90;;;;;;4990959;23;20027;-76
2021/12/07 07:38:48;;;;;;;25.67;10.25;;;0.20;99.90;;;;;;4990667;23;20031;-76
2021/12/07 07:40:49;;;;;;;33.13;11.63;;;0.30;99.90;;;;;;4989859;23;20015;-76
2021/12/07 07:42:50;;;;;;;26.65;11.13;;;0.50;99.90;;;;;;4991710;23;20513;-76
2021/12/07 07:44:50;;;;;;;37.85;13.20;;;0.60;99.90;;;;;;5013653;23;20484;-76
2021/12/07 07:46:51;;;;;;;27.08;12.35;;;0.60;99.90;;;;;;4990388;23;20075;-76
2021/12/07 07:48:52;;;;;;;32.70;11.73;;;0.80;99.90;;;;;;4987877;23;20019;-76
2021/12/07 07:50:54;;;;;;;42.40;11.52;;;0.80;99.90;;;;;;4987862;23;20091;-75
2021/12/07 07:52:54;;;;;;;35.15;12.70;;;0.80;99.90;;;;;;4991238;23;20015;-76
2021/12/07 07:54:55;;;;;;;39.88;11.32;;;0.90;99.90;;;;;;4991056;23;20015;-75
2021/12/07 07:56:56;;;;;;;34.67;12.27;;;0.90;99.90;;;;;;4990659;23;20099;-80
2021/12/07 07:58:58;;;;;;;32.35;11.05;;;1.00;99.90;;;;;;4991152;23;20025;-79
2021/12/07 08:00:59;;;;;;;32.65;10.82;;;1.20;99.90;;;;;;4989876;23;20106;-80
2021/12/07 08:03:00;;;;;;;31.15;10.68;;;1.40;99.90;;;;;;4991231;23;20022;-80
2021/12/07 08:05:01;;;;;;;31.92;12.20;;;1.60;99.90;;;;;;4989308;23;20090;-80
2021/12/07 08:07:01;;;;;;;32.95;11.68;;;1.70;99.90;;;;;;4990772;23;20015;-81
2021/12/07 08:09:05;;;;;;;31.25;11.50;;;1.70;99.90;;;;;;4991318;23;20031;-81
2021/12/07 08:11:06;;;;;;;32.60;11.25;;;1.70;99.90;;;;;;4988757;23;20019;-81
2021/12/07 08:13:08;;;;;;;36.08;11.85;;;1.80;99.90;;;;;;4991333;23;20086;-82
2021/12/07 08:15:11;;;;;;;28.13;8.80;;;1.90;99.90;;;;;;4988877;23;20451;-82
2021/12/07 08:17:12;;;;;;;31.88;10.50;;;2.10;99.90;;;;;;4990212;23;20019;-81
2021/12/07 08:19:13;;;;;;;29.20;9.18;;;2.20;99.90;;;;;;5012046;23;20531;-83
2021/12/07 08:21:15;;;;;;;22.77;10.13;;;2.30;99.90;;;;;;4990174;23;20074;-83
2021/12/07 08:23:15;;;;;;;31.00;10.07;;;2.40;99.90;;;;;;4989528;23;20027;-84
2021/12/07 08:25:16;;;;;;;40.45;12.40;;;2.50;99.90;;;;;;5013751;23;20018;-81
2021/12/07 08:27:17;;;;;;;32.03;9.52;;;2.50;99.90;;;;;;4991137;23;20027;-81
2021/12/07 08:29:18;;;;;;;31.05;10.93;;;2.40;99.90;;;;;;4990695;23;20015;-82
2021/12/07 08:31:19;;;;;;;35.88;11.80;;;2.40;99.90;;;;;;4991115;23;20011;-79
2021/12/07 08:33:20;;;;;;;40.30;10.27;;;2.30;99.90;;;;;;4988970;23;20019;-82
2021/12/07 08:35:21;;;;;;;26.13;8.82;;;2.40;99.90;;;;;;4990980;23;20026;-82
2021/12/07 08:37:22;;;;;;;31.23;9.55;;;2.40;99.90;;;;;;4992007;23;20011;-80
2021/12/07 08:39:22;;;;;;;33.13;11.30;;;2.60;99.90;;;;;;4989362;23;20023;-83
2021/12/07 08:41:23;;;;;;;28.75;9.32;;;2.60;99.90;;;;;;5012814;23;20050;-81
2021/12/07 08:43:28;;;;;;;38.80;10.35;;;2.50;99.90;;;;;;4990732;23;20027;-82
2021/12/07 08:45:30;;;;;;;30.15;10.32;;;2.40;99.90;;;;;;4990903;23;20026;-79
2021/12/07 08:47:31;;;;;;;38.90;11.00;;;2.30;99.90;;;;;;4989572;23;20039;-80
2021/12/07 08:49:31;;;;;;;45.00;10.88;;;2.40;99.90;;;;;;5013149;23;20066;-80
2021/12/07 08:51:32;;;;;;;32.47;11.93;;;2.40;99.90;;;;;;4991294;23;20015;-82
2021/12/07 08:53:36;;;;;;;36.92;12.65;;;2.40;99.90;;;;;;4989657;23;20019;-81
2021/12/07 09:00:20;;;;;;;38.08;12.13;;;2.40;99.90;;;;;;4990722;23;20332;-82
2021/12/07 09:02:23;;;;;;;38.10;11.38;;;2.40;99.90;;;;;;4988664;23;20019;-82
2021/12/07 09:04:25;;;;;;;28.02;10.43;;;2.40;99.90;;;;;;4991443;23;20014;-82
2021/12/07 09:06:28;;;;;;;22.95;9.70;;;2.30;99.90;;;;;;4991122;23;20035;-82
2021/12/07 09:08:28;;;;;;;29.40;10.68;;;2.40;99.90;;;;;;4991541;23;20508;-82
2021/12/07 09:10:30;;;;;;;36.10;11.68;;;2.50;99.90;;;;;;4978160;23;20026;-81
2021/12/07 09:12:32;;;;;;;28.60;11.43;;;2.50;99.90;;;;;;4990587;23;20373;-82
2021/12/07 09:14:34;;;;;;;39.47;13.52;;;2.50;99.90;;;;;;4991173;23;20456;-81
2021/12/07 09:16:35;;;;;;;30.20;11.80;;;2.50;99.90;;;;;;4990951;23;20007;-80
2021/12/07 09:18:36;;;;;;;37.60;12.73;;;2.60;99.90;;;;;;4990133;23;20122;-82
2021/12/07 09:20:37;;;;;;;30.45;11.25;;;2.60;99.90;;;;;;4992536;23;20015;-81
2021/12/07 09:22:38;;;;;;;39.28;12.38;;;2.70;99.90;;;;;;4992028;23;20403;-81
2021/12/07 09:24:38;;;;;;;40.92;14.40;;;2.80;99.90;;;;;;4992961;23;20015;-80
2021/12/07 09:26:39;;;;;;;38.40;10.15;;;3.00;99.90;;;;;;4992599;23;20015;-82
2021/12/07 09:28:41;;;;;;;39.25;13.35;;;3.10;99.90;;;;;;4992677;23;20023;-81
2021/12/07 09:30:42;;;;;;;43.80;16.23;;;3.20;99.90;;;;;;4992655;23;20026;-83
2021/12/07 09:32:45;;;;;;;41.25;17.25;;;3.30;99.90;;;;;;4992179;23;20046;-82
2021/12/07 09:34:45;;;;;;;28.95;11.98;;;3.30;99.90;;;;;;4990935;23;20023;-81
2021/12/07 09:36:47;;;;;;;52.03;18.38;;;3.30;99.90;;;;;;4991015;23;20380;-81
2021/12/07 09:38:49;;;;;;;43.75;16.42;;;3.30;99.90;;;;;;4990235;23;20455;-81
2021/12/07 09:40:50;;;;;;;42.00;15.77;;;3.20;99.90;;;;;;4992336;23;20019;-81
2021/12/07 09:42:52;;;;;;;43.28;17.00;;;3.20;99.90;;;;;;4990100;23;20015;-80
2021/12/07 09:44:53;;;;;;;43.65;16.90;;;3.20;99.90;;;;;;4992513;23;20891;-83
2021/12/07 09:46:53;;;;;;;40.90;15.82;;;3.20;99.90;;;;;;4991371;23;20038;-81
2021/12/07 09:48:54;;;;;;;44.13;15.95;;;3.20;99.90;;;;;;4992468;23;20504;-80
2021/12/07 09:50:56;;;;;;;35.10;15.45;;;3.10;99.90;;;;;;4991039;23;20114;-81
2021/12/07 09:52:57;;;;;;;43.58;17.50;;;3.20;99.90;;;;;;4992405;23;20015;-80
2021/12/07 09:54:57;;;;;;;40.78;16.02;;;3.20;99.90;;;;;;4990930;23;20015;-81
2021/12/07 09:56:58;;;;;;;47.25;17.58;;;3.20;99.90;;;;;;4992134;23;20021;-81
2021/12/07 09:59:00;;;;;;;40.80;14.93;;;3.30;99.90;;;;;;4990387;23;20027;-83
2021/12/07 10:01:01;;;;;;;48.95;15.88;;;3.30;99.90;;;;;;4991313;23;20262;-81
2021/12/07 10:03:02;;;;;;;47.53;15.70;;;3.40;99.90;;;;;;4993066;23;20019;-81
2021/12/07 10:05:04;;;;;;;45.53;16.88;;;3.40;99.90;;;;;;4990327;23;20054;-82
2021/12/07 10:07:08;;;;;;;45.63;17.17;;;3.40;99.90;;;;;;4993283;23;20463;-83
2021/12/07 10:09:09;;;;;;;39.65;16.35;;;3.40;99.90;;;;;;4990762;23;20019;-82
2021/12/07 10:11:10;;;;;;;55.30;19.42;;;3.50;99.90;;;;;;4992989;23;20021;-82
2021/12/07 10:13:12;;;;;;;43.20;16.27;;;3.50;99.90;;;;;;4992625;23;20022;-84
2021/12/07 10:15:13;;;;;;;48.42;16.42;;;3.50;99.90;;;;;;4989754;23;20046;-83
2021/12/07 10:17:19;;;;;;;59.13;19.95;;;3.50;99.90;;;;;;4989819;23;20023;-82
2021/12/07 10:19:28;;;;;;;57.25;18.88;;;3.50;99.90;;;;;;5013914;23;20471;-82
2021/12/07 10:21:38;;;;;;;56.80;19.55;;;3.60;99.90;;;;;;4990290;23;20393;-81
2021/12/07 10:24:02;;;;;;;48.83;18.17;;;3.70;99.90;;;;;;4992357;23;20345;-80
2021/12/07 10:26:11;;;;;;;46.08;17.13;;;3.80;99.90;;;;;;4992330;23;20042;-82
2021/12/07 10:28:26;;;;;;;47.72;17.00;;;3.80;99.90;;;;;;4989901;23;20016;-82
2021/12/07 10:30:27;;;;;;;47.35;18.27;;;3.90;99.90;;;;;;4992905;23;20317;-82
2021/12/07 10:32:28;;;;;;;48.97;16.48;;;3.90;99.90;;;;;;4992438;23;20007;-81
2021/12/07 10:34:33;;;;;;;47.85;20.00;;;4.00;99.90;;;;;;4992188;23;20095;-79
2021/12/07 10:36:43;;;;;;;41.67;18.95;;;4.00;99.90;;;;;;4991953;23;20027;-82
2021/12/07 10:38:55;;;;;;;49.20;20.25;;;4.10;99.90;;;;;;4992543;23;20401;-80
2021/12/07 10:41:03;;;;;;;48.45;20.58;;;4.20;99.90;;;;;;4992618;23;20071;-81
2021/12/07 10:43:04;;;;;;;43.17;17.55;;;4.40;99.90;;;;;;4991313;23;20559;-81
2021/12/07 10:45:08;;;;;;;48.95;19.50;;;4.60;99.90;;;;;;4990689;23;20026;-80
2021/12/07 10:47:17;;;;;;;45.60;19.10;;;5.00;99.90;;;;;;5013658;23;20082;-80
2021/12/07 10:49:22;;;;;;;41.55;18.88;;;5.70;99.90;;;;;;4990594;23;20071;-81
2021/12/07 10:51:23;;;;;;;58.47;21.33;;;6.10;99.90;;;;;;4991822;23;20015;-82
2021/12/07 10:53:23;;;;;;;43.63;20.30;;;6.40;99.90;;;;;;4992712;23;19999;-81
2021/12/07 10:55:26;;;;;;;42.95;21.35;;;6.40;99.90;;;;;;4989631;23;20082;-81
2021/12/07 10:57:53;;;;;;;45.53;20.52;;;6.50;99.90;;;;;;4991231;23;20041;-81
2021/12/07 11:00:30;;;;;;;45.88;19.98;;;6.80;99.90;;;;;;4981682;23;20043;-81
2021/12/07 11:02:34;;;;;;;40.33;20.95;;;7.00;99.90;;;;;;4985560;23;20047;-81
2021/12/07 11:04:34;;;;;;;;;;;7.20;99.90;;;;;;4992377;23;20019;-82
2021/12/07 11:07:03;;;;;;;34.45;13.38;;;7.50;99.90;;;;;;4991187;23;19910;-83
2021/12/07 11:09:06;;;;;;;35.00;13.82;;;7.30;99.90;;;;;;5013634;23;20112;-81
2021/12/07 11:11:07;;;;;;;38.75;15.10;;;7.40;99.90;;;;;;4989708;23;20372;-80
2021/12/07 11:13:22;;;;;;;25.52;12.02;;;7.50;99.90;;;;;;5013981;23;20022;-79
2021/12/07 11:15:26;;;;;;;33.45;12.60;;;7.60;99.90;;;;;;4991293;23;20014;-81
2021/12/07 11:17:35;;;;;;;25.60;12.65;;;7.40;99.90;;;;;;4990879;23;20022;-80
2021/12/07 11:19:36;;;;;;;34.95;12.35;;;7.40;99.90;;;;;;4990240;23;20015;-82
2021/12/07 11:21:42;;;;;;;28.67;13.27;;;7.50;99.90;;;;;;5014030;23;20034;-80
2021/12/07 11:23:51;;;;;;;26.77;11.27;;;7.60;99.90;;;;;;4992268;23;20124;-83
2021/12/07 11:29:40;;;;;;;27.70;10.45;;;7.60;99.90;;;;;;4990243;23;20016;-82
2021/12/07 11:30:46;;;;;;;23.83;10.70;;;7.90;99.90;;;;;;4991554;23;20076;-80
2021/12/07 11:32:56;;;;;;;25.00;9.82;;;8.20;99.90;;;;;;4992376;23;20015;-79
2021/12/07 11:35:13;;;;;;;25.80;9.70;;;8.30;99.90;;;;;;4991577;23;20019;-78
2021/12/07 11:37:14;;;;;;;22.35;8.25;;;8.70;99.90;;;;;;5013083;23;20771;-78
2021/12/07 11:39:25;;;;;;;21.85;8.77;;;8.80;99.90;;;;;;4989843;23;20125;-78
2021/12/07 11:41:32;;;;;;;17.42;8.55;;;8.40;99.90;;;;;;5013661;23;20019;-78
2021/12/07 11:43:32;;;;;;;21.25;8.45;;;8.30;99.90;;;;;;4991470;23;20022;-79
2021/12/07 11:45:33;;;;;;;18.98;8.52;;;8.10;99.90;;;;;;4991353;23;20026;-79
2021/12/07 11:47:36;;;;;;;18.33;8.10;;;8.20;99.90;;;;;;4991071;23;20041;-79
2021/12/07 11:49:38;;;;;;;18.43;7.83;;;8.30;99.90;;;;;;5012243;23;20142;-78
2021/12/07 11:51:41;;;;;;;19.45;7.10;;;8.60;99.90;;;;;;4990515;23;20720;-80
2021/12/07 11:53:42;;;;;;;19.50;7.70;;;8.80;99.90;;;;;;4988159;23;20080;-79
2021/12/07 11:55:47;;;;;;;15.23;6.85;;;8.90;99.90;;;;;;4988156;23;20571;-79
2021/12/07 11:57:49;;;;;;;12.52;6.15;;;8.90;99.90;;;;;;5012363;23;20058;-78
2021/12/07 11:59:50;;;;;;;20.45;6.55;;;8.90;99.90;;;;;;4990707;23;20018;-79
2021/12/07 12:01:52;;;;;;;18.23;7.07;;;8.60;99.90;;;;;;4990630;23;20015;-80
2021/12/07 12:03:53;;;;;;;13.40;5.88;;;8.40;99.90;;;;;;4991419;23;20071;-79
2021/12/07 12:05:55;;;;;;;14.52;6.35;;;8.40;99.90;;;;;;5012281;23;20015;-78
2021/12/07 12:07:56;;;;;;;14.30;5.45;;;8.30;99.90;;;;;;4992173;23;20026;-81
2021/12/07 12:09:57;;;;;;;15.23;5.82;;;8.20;99.90;;;;;;4991505;23;20015;-78